createdAt,value
2019-06-07T00:00:29.676Z,5.07
2019-06-07T00:02:39.752Z,5.17
2019-06-07T00:05:09.963Z,5.47
2019-06-07T00:07:39.519Z,5.60
2019-06-07T00:10:09.398Z,4.77
2019-06-07T00:12:38.609Z,5.47
2019-06-07T00:15:11.588Z,5.10
2019-06-07T00:17:38.517Z,6.07
2019-06-07T00:20:09.344Z,5.97
2019-06-07T00:22:38.608Z,5.43
2019-06-07T00:25:12.081Z,6.37
2019-06-07T00:27:40.389Z,5.37
2019-06-07T00:30:33.266Z,5.50
2019-06-07T00:32:40.032Z,5.90
2019-06-07T00:35:09.176Z,5.63
2019-06-07T00:37:38.156Z,6.03
2019-06-07T00:40:17.379Z,5.50
2019-06-07T00:42:37.844Z,5.77
2019-06-07T00:45:07.124Z,5.70
2019-06-07T00:47:35.865Z,5.60
2019-06-07T00:50:04.980Z,5.40
2019-06-07T00:55:04.145Z,5.60
2019-06-07T00:57:32.827Z,5.13
2019-06-07T01:00:01.570Z,5.87
2019-06-07T01:02:31.685Z,5.40
2019-06-07T01:05:00.494Z,5.30
2019-06-07T01:07:29.783Z,5.40
2019-06-07T01:09:58.523Z,5.80
2019-06-07T01:12:27.431Z,5.93
2019-06-07T01:14:56.149Z,5.60
2019-06-07T01:17:39.203Z,5.73
2019-06-07T01:19:56.405Z,4.73
2019-06-07T01:22:28.893Z,5.40
2019-06-07T01:24:55.524Z,5.57
2019-06-07T01:27:25.588Z,5.13
2019-06-07T01:29:54.474Z,5.37
2019-06-07T01:32:24.656Z,4.80
2019-06-07T01:34:53.833Z,5.13
2019-06-07T01:37:25.130Z,5.03
2019-06-07T01:39:53.108Z,4.80
2019-06-07T01:42:22.675Z,5.13
2019-06-07T01:44:52.072Z,5.30
2019-06-07T01:47:24.745Z,5.47
2019-06-07T01:49:51.127Z,4.87
2019-06-07T01:52:23.508Z,5.33
2019-06-07T01:54:57.883Z,5.40
2019-06-07T01:57:39.823Z,4.73
2019-06-07T01:59:51.236Z,5.30
2019-06-07T02:02:20.186Z,4.77
2019-06-07T02:04:48.928Z,5.37
2019-06-07T02:07:20.402Z,5.07
2019-06-07T02:09:48.204Z,5.33
2019-06-07T02:12:27.970Z,5.20
2019-06-07T02:14:47.487Z,4.50
2019-06-07T02:17:16.148Z,5.37
2019-06-07T02:19:44.848Z,4.77
2019-06-07T02:22:13.524Z,5.00
2019-06-07T02:24:43.578Z,5.20
2019-06-07T02:27:12.349Z,5.10
2019-06-07T02:29:41.013Z,4.83
2019-06-07T02:32:09.784Z,5.30
2019-06-07T02:34:39.718Z,5.20
2019-06-07T02:37:08.580Z,5.43
2019-06-07T02:39:40.644Z,5.23
2019-06-07T02:42:07.695Z,5.03
2019-06-07T02:44:39.438Z,5.13
2019-06-07T02:47:06.813Z,5.47
2019-06-07T02:49:40.970Z,6.00
2019-06-07T02:52:06.025Z,5.40
2019-06-07T02:54:39.757Z,5.80
2019-06-07T02:57:05.303Z,5.47
2019-06-07T02:59:59.666Z,5.07
2019-06-07T03:02:04.542Z,6.60
2019-06-07T03:04:40.583Z,5.70
2019-06-07T03:07:04.278Z,6.67
2019-06-07T03:09:36.790Z,5.80
2019-06-07T03:12:04.993Z,5.85
2019-06-07T03:14:35.739Z,5.40
2019-06-07T03:17:20.466Z,5.47
2019-06-07T03:19:49.629Z,5.03
2019-06-07T03:22:18.362Z,5.87
2019-06-07T03:24:47.127Z,5.50
2019-06-07T03:27:35.101Z,5.10
2019-06-07T03:29:46.635Z,5.60
2019-06-07T03:32:15.265Z,4.97
2019-06-07T03:34:44.097Z,5.03
2019-06-07T03:37:12.806Z,5.30
2019-06-07T03:39:41.453Z,5.40
2019-06-07T03:42:10.141Z,5.53
2019-06-07T03:44:41.577Z,5.47
2019-06-07T03:47:09.224Z,5.37
2019-06-07T03:49:41.815Z,5.57
2019-06-07T03:52:08.307Z,5.53
2019-06-07T03:54:39.788Z,5.00
2019-06-07T03:57:07.531Z,5.07
2019-06-07T03:59:39.041Z,4.00
2019-06-07T04:02:06.563Z,4.20
2019-06-07T04:04:38.482Z,3.93
2019-06-07T04:07:05.573Z,3.93
2019-06-07T04:09:37.447Z,3.90
2019-06-07T04:12:04.685Z,3.50
2019-06-07T04:14:35.026Z,3.43
2019-06-07T04:17:03.637Z,4.00
2019-06-07T04:19:35.059Z,3.67
2019-06-07T04:22:02.729Z,3.27
2019-06-07T04:24:33.825Z,3.90
2019-06-07T04:27:01.783Z,3.97
2019-06-07T04:29:36.511Z,4.07
2019-06-07T04:32:00.884Z,4.20
2019-06-07T04:34:32.003Z,3.90
2019-06-07T04:37:00.687Z,3.83
2019-06-07T04:39:32.194Z,4.20
2019-06-07T04:42:00.718Z,3.87
2019-06-07T04:44:31.114Z,3.83
2019-06-07T04:46:59.984Z,3.93
2019-06-07T04:49:29.946Z,3.40
2019-06-07T04:51:59.667Z,3.17
2019-06-07T04:54:30.932Z,3.20
2019-06-07T04:56:58.574Z,3.17
2019-06-07T05:00:10.085Z,3.33
2019-06-07T05:02:06.527Z,3.30
2019-06-07T05:04:37.112Z,3.40
2019-06-07T05:07:06.037Z,3.20
2019-06-07T05:09:37.527Z,2.93
2019-06-07T05:12:13.689Z,2.80
2019-06-07T05:17:25.216Z,2.63
2019-06-07T05:20:07.806Z,2.57
2019-06-07T05:22:40.663Z,2.23
2019-06-07T05:25:08.602Z,2.50
2019-06-07T05:27:41.189Z,2.50
2019-06-07T05:30:50.320Z,2.33
2019-06-07T05:32:45.761Z,2.13
2019-06-07T05:35:11.787Z,2.27
2019-06-07T05:37:45.161Z,2.47
2019-06-07T05:40:11.766Z,2.37
2019-06-07T05:42:45.847Z,1.90
2019-06-07T05:45:11.787Z,2.17
2019-06-07T05:47:49.430Z,2.37
2019-06-07T05:50:38.558Z,2.30
2019-06-07T05:52:46.882Z,2.50
2019-06-07T05:55:13.446Z,2.45
2019-06-07T05:57:48.581Z,2.30
2019-06-07T06:00:14.213Z,2.40
2019-06-07T06:03:05.424Z,2.23
2019-06-07T06:05:34.175Z,2.00
2019-06-07T06:10:33.925Z,2.10
2019-06-07T06:13:04.265Z,2.17
2019-06-07T06:16:13.354Z,1.83
2019-06-07T06:18:47.228Z,1.63
2019-06-07T06:26:46.284Z,1.50
2019-06-07T06:29:10.814Z,2.07
2019-06-07T06:31:42.039Z,1.70
2019-06-07T06:36:53.191Z,1.60
2019-06-07T06:39:21.825Z,2.00
2019-06-07T06:42:00.811Z,1.43
2019-06-07T06:44:21.127Z,1.80
2019-06-07T06:46:57.226Z,1.80
2019-06-07T06:49:20.414Z,1.60
2019-06-07T06:51:53.330Z,1.95
2019-06-07T06:54:39.647Z,1.70
2019-06-07T06:56:52.618Z,1.70
2019-06-07T06:59:38.189Z,1.87
2019-06-07T07:01:52.645Z,1.70
2019-06-07T07:04:21.539Z,1.50
2019-06-07T07:06:51.280Z,1.80
2019-06-07T07:09:21.293Z,1.50
2019-06-07T07:12:01.365Z,1.57
2019-06-07T07:14:20.866Z,1.70
2019-06-07T07:16:53.691Z,1.57
2019-06-07T07:19:20.110Z,1.53
2019-06-07T07:21:50.626Z,1.57
2019-06-07T07:24:22.260Z,1.63
2019-06-07T07:26:53.882Z,1.50
2019-06-07T07:29:21.059Z,1.50
2019-06-07T07:31:52.410Z,1.53
2019-06-07T07:34:33.554Z,1.50
2019-06-07T07:36:59.076Z,1.53
2019-06-07T07:39:22.797Z,1.70
2019-06-07T07:42:15.340Z,1.43
2019-06-07T07:44:22.310Z,1.47
2019-06-07T07:46:54.081Z,1.67
2019-06-07T07:49:22.087Z,1.30
2019-06-07T07:51:55.014Z,1.60
2019-06-07T07:54:22.263Z,1.40
2019-06-07T07:56:51.716Z,1.40
2019-06-07T07:59:40.720Z,1.20
2019-06-07T08:01:55.781Z,1.57
2019-06-07T08:04:38.893Z,1.60
2019-06-07T08:06:56.039Z,1.70
2019-06-07T08:09:25.417Z,1.43
2019-06-07T08:11:59.990Z,1.60
2019-06-07T08:14:37.530Z,1.50
2019-06-07T08:17:06.092Z,1.50
2019-06-07T08:19:35.511Z,1.70
2019-06-07T08:22:04.814Z,1.40
2019-06-07T08:24:33.738Z,1.67
2019-06-07T08:27:24.766Z,2.20
2019-06-07T08:29:44.182Z,2.60
2019-06-07T08:32:03.358Z,2.80
2019-06-07T08:34:32.271Z,2.67
2019-06-07T08:37:01.924Z,2.30
2019-06-07T08:39:31.078Z,2.07
2019-06-07T08:42:14.821Z,1.60
2019-06-07T08:44:30.383Z,1.70
2019-06-07T08:47:16.667Z,1.10
2019-06-07T08:49:29.870Z,1.40
2019-06-07T08:52:09.742Z,1.43
2019-06-07T08:54:29.951Z,1.57
2019-06-07T08:57:20.575Z,1.50
2019-06-07T08:59:40.744Z,1.00
2019-06-07T09:02:22.955Z,1.23
2019-06-07T09:04:40.578Z,1.50
2019-06-07T09:07:19.160Z,1.20
2019-06-07T09:09:40.943Z,1.20
2019-06-07T09:12:11.919Z,1.40
2019-06-07T09:14:58.733Z,1.40
2019-06-07T09:17:12.851Z,1.40
2019-06-07T09:19:41.911Z,1.40
2019-06-07T09:22:11.626Z,1.17
2019-06-07T09:24:41.005Z,1.43
2019-06-07T09:27:10.585Z,1.20
2019-06-07T09:29:39.662Z,1.50
2019-06-07T09:32:14.827Z,1.43
2019-06-07T09:34:39.252Z,1.40
2019-06-07T09:38:02.767Z,1.30
2019-06-07T09:39:40.725Z,1.10
2019-06-07T09:42:12.491Z,1.23
2019-06-07T09:44:40.927Z,1.20
2019-06-07T09:47:30.261Z,1.33
2019-06-07T09:49:40.560Z,1.33
2019-06-07T09:52:11.036Z,1.67
2019-06-07T09:55:05.910Z,1.47
2019-06-07T09:57:16.400Z,1.60
2019-06-07T09:59:40.979Z,1.27
2019-06-07T10:02:13.713Z,1.43
2019-06-07T10:04:42.783Z,1.27
2019-06-07T10:07:28.622Z,1.53
2019-06-07T10:10:09.874Z,1.60
2019-06-07T10:12:14.136Z,1.70
2019-06-07T10:14:45.138Z,1.40
2019-06-07T10:17:13.644Z,1.50
2019-06-07T10:19:47.763Z,1.57
2019-06-07T10:22:16.745Z,1.60
2019-06-07T10:24:45.453Z,1.40
2019-06-07T10:27:14.096Z,1.60
2019-06-07T10:29:42.852Z,1.30
2019-06-07T10:32:11.740Z,1.60
2019-06-07T10:34:40.496Z,1.53
2019-06-07T10:37:13.921Z,1.50
2019-06-07T10:39:48.660Z,1.50
2019-06-07T10:42:11.628Z,1.30
2019-06-07T10:44:52.989Z,1.50
2019-06-07T10:47:21.764Z,1.80
2019-06-07T10:49:50.602Z,1.50
2019-06-07T10:52:19.251Z,1.33
2019-06-07T10:55:04.572Z,1.57
2019-06-07T10:57:33.416Z,1.50
2019-06-07T11:00:03.487Z,1.50
2019-06-07T11:02:32.340Z,1.53
2019-06-07T11:05:01.165Z,1.40
2019-06-07T11:07:29.965Z,1.43
2019-06-07T11:10:07.558Z,1.70
2019-06-07T11:12:29.737Z,1.30
2019-06-07T11:15:01.027Z,1.40
2019-06-07T11:17:30.066Z,1.80
2019-06-07T11:19:58.827Z,2.20
2019-06-07T11:22:27.907Z,1.20
2019-06-07T11:24:56.596Z,1.37
2019-06-07T11:27:26.604Z,1.30
2019-06-07T11:29:55.543Z,1.43
2019-06-07T11:32:24.460Z,1.70
2019-06-07T11:34:53.256Z,1.80
2019-06-07T11:37:22.125Z,1.53
2019-06-07T11:39:51.252Z,1.80
2019-06-07T11:42:20.195Z,1.70
2019-06-07T11:44:56.927Z,1.57
2019-06-07T11:47:20.174Z,1.50
2019-06-07T11:49:49.614Z,1.93
2019-06-07T11:52:18.670Z,1.80
2019-06-07T11:54:48.197Z,1.50
2019-06-07T11:57:17.461Z,1.60
2019-06-07T11:59:46.398Z,1.53
2019-06-07T12:02:15.573Z,2.03
2019-06-07T12:04:44.833Z,1.70
2019-06-07T12:07:15.423Z,1.67
2019-06-07T12:09:55.969Z,4.90
2019-06-07T12:12:16.519Z,1.60
2019-06-07T12:14:45.546Z,1.67
2019-06-07T12:17:15.429Z,1.40
2019-06-07T12:19:44.702Z,1.90
2019-06-07T12:22:13.975Z,1.30
2019-06-07T12:24:47.955Z,1.67
2019-06-07T12:27:18.656Z,1.40
2019-06-07T12:29:47.633Z,1.75
2019-06-07T12:32:17.507Z,1.50
2019-06-07T12:34:46.570Z,1.30
2019-06-07T12:37:18.946Z,1.57
2019-06-07T12:39:46.039Z,1.80
2019-06-07T12:42:16.259Z,1.70
2019-06-07T12:44:45.441Z,1.60
2019-06-07T12:47:15.035Z,2.07
2019-06-07T12:49:43.720Z,2.07
2019-06-07T12:52:15.661Z,1.43
2019-06-07T12:54:43.528Z,1.63
2019-06-07T12:57:13.706Z,1.57
2019-06-07T12:59:42.644Z,1.57
2019-06-07T13:02:11.321Z,1.77
2019-06-07T13:04:39.961Z,1.73
2019-06-07T13:07:08.549Z,1.60
2019-06-07T13:09:37.947Z,2.07
2019-06-07T13:12:12.478Z,1.73
2019-06-07T19:41:19.979Z,1.60
2019-06-07T20:03:30.768Z,1.03
2019-06-07T20:06:04.473Z,6.67
2019-06-07T20:09:01.085Z,0.90
2019-06-07T20:11:52.100Z,0.80
2019-06-07T20:19:50.335Z,0.70
2019-06-07T20:22:20.062Z,1.00
2019-06-07T20:24:57.250Z,1.00
2019-06-07T20:33:18.267Z,0.87
2019-06-07T20:55:15.416Z,1.03
2019-06-07T20:57:54.779Z,1.00
2019-06-07T21:00:28.829Z,1.10
2019-06-07T21:08:25.650Z,1.23
2019-06-07T21:13:43.229Z,1.03
2019-06-07T21:22:11.566Z,1.00
2019-06-07T21:28:22.500Z,1.03
2019-06-07T21:30:56.113Z,0.80
2019-06-07T21:36:09.763Z,1.00
2019-06-07T21:38:47.094Z,1.10
2019-06-07T21:41:16.524Z,1.00
2019-06-07T21:43:49.221Z,0.87
2019-06-07T21:46:32.424Z,0.83
2019-06-07T21:49:04.827Z,0.90
2019-06-07T21:51:39.492Z,1.00
2019-06-07T21:57:16.241Z,1.00
2019-06-07T21:59:46.179Z,1.00
2019-06-07T22:05:05.574Z,0.90
2019-06-07T22:07:37.227Z,0.70
2019-06-07T22:12:54.831Z,0.97
2019-06-07T22:15:33.335Z,0.90
2019-06-07T22:20:47.655Z,1.30
2019-06-07T22:23:17.866Z,1.10
2019-06-07T22:29:02.511Z,0.90
2019-06-07T22:32:14.981Z,0.70
2019-06-07T22:34:43.538Z,0.70
2019-06-07T22:42:37.662Z,0.80
2019-06-07T22:47:57.690Z,1.17
2019-06-07T22:50:45.432Z,1.17
2019-06-07T22:53:15.935Z,0.80
2019-06-07T22:55:50.932Z,1.10
2019-06-07T22:58:22.650Z,1.20
2019-06-07T23:00:55.114Z,0.87
2019-06-07T23:03:25.268Z,1.13
2019-06-07T23:06:14.721Z,1.22
2019-06-07T23:08:45.044Z,0.90
2019-06-07T23:11:15.783Z,1.53
2019-06-07T23:13:47.571Z,0.90
2019-06-07T23:19:06.026Z,0.97
2019-06-07T23:21:50.986Z,0.97
2019-06-07T23:24:39.697Z,1.10
2019-06-07T23:27:27.951Z,1.17
2019-06-07T23:30:08.291Z,0.90
2019-06-07T23:32:32.549Z,1.23
2019-06-07T23:35:04.036Z,0.93
2019-06-07T23:37:33.950Z,1.23
2019-06-07T23:42:51.843Z,1.10
2019-06-07T23:45:21.716Z,1.40
2019-06-07T23:47:54.838Z,0.87
2019-06-07T23:53:45.843Z,1.10
2019-06-07T23:56:16.449Z,1.10
2019-06-07T23:58:45.484Z,1.22
